createdAt,value
2023-03-04T00:01:13.637Z,49.30
2023-03-04T00:06:16.817Z,43.72
2023-03-04T00:11:20.871Z,50.05
2023-03-04T00:16:23.805Z,48.28
2023-03-04T00:21:26.625Z,53.03
2023-03-04T00:26:30.757Z,48.53
2023-03-04T00:31:33.604Z,52.63
2023-03-04T00:36:36.414Z,51.58
2023-03-04T00:41:40.706Z,54.88
2023-03-04T00:46:44.185Z,61.83
2023-03-04T00:51:46.998Z,59.47
2023-03-04T00:56:51.360Z,59.35
2023-03-04T01:01:54.142Z,65.60
2023-03-04T01:06:56.911Z,65.38
2023-03-04T01:12:00.992Z,66.40
2023-03-04T01:17:04.169Z,62.33
2023-03-04T01:22:07.090Z,66.22
2023-03-04T01:27:11.288Z,64.35
2023-03-04T01:32:14.140Z,66.35
2023-03-04T01:37:19.085Z,65.93
2023-03-04T01:42:35.679Z,67.65
2023-03-04T01:47:38.501Z,63.97
2023-03-04T01:52:43.869Z,62.00
2023-03-04T01:57:49.878Z,59.92
2023-03-04T02:02:56.915Z,59.97
2023-03-04T02:13:06.905Z,64.32
2023-03-04T02:18:16.813Z,62.42
2023-03-04T02:23:27.122Z,64.70
2023-03-04T02:28:31.610Z,61.00
2023-03-04T02:33:34.528Z,61.10
2023-03-04T02:38:38.741Z,57.95
2023-03-04T02:43:44.448Z,58.45
2023-03-04T02:48:47.407Z,59.35
2023-03-04T02:53:50.244Z,60.03
2023-03-04T02:58:54.508Z,60.72
2023-03-04T03:03:57.786Z,59.20
2023-03-04T03:09:01.058Z,59.22
2023-03-04T03:14:08.902Z,58.90
2023-03-04T03:24:15.618Z,55.50
2023-03-04T03:29:19.956Z,57.17
2023-03-04T03:34:22.727Z,54.35
2023-03-04T03:39:26.348Z,56.50
2023-03-04T03:44:30.693Z,49.85
2023-03-04T03:49:33.631Z,52.63
2023-03-04T03:54:36.650Z,52.58
2023-03-04T03:59:40.876Z,46.88
2023-03-04T04:04:43.731Z,49.17
2023-03-04T04:09:46.661Z,45.17
2023-03-04T04:14:50.835Z,47.97
2023-03-04T04:19:53.668Z,45.10
2023-03-04T04:24:56.446Z,45.50
2023-03-04T04:30:00.664Z,46.38
2023-03-04T04:35:03.479Z,44.03
2023-03-04T04:40:07.446Z,43.15
2023-03-04T04:45:12.438Z,41.58
2023-03-04T04:50:15.140Z,41.03
2023-03-04T04:55:18.073Z,39.03
2023-03-04T05:00:23.033Z,40.08
2023-03-04T05:05:26.697Z,41.67
2023-03-04T05:10:29.518Z,39.00
2023-03-04T05:15:33.859Z,40.42
2023-03-04T05:20:37.224Z,43.35
2023-03-04T05:25:39.980Z,40.65
2023-03-04T05:30:45.963Z,39.80
2023-03-04T05:35:50.904Z,40.13
2023-03-04T05:40:58.689Z,43.88
2023-03-04T05:46:03.868Z,42.17
2023-03-04T05:51:07.182Z,39.78
2023-03-04T05:56:11.023Z,43.45
2023-03-04T06:01:15.836Z,41.30
2023-03-04T06:06:19.328Z,39.80
2023-03-04T06:11:22.133Z,39.28
2023-03-04T06:16:26.529Z,38.58
2023-03-04T06:21:29.457Z,37.45
2023-03-04T06:26:32.517Z,34.85
2023-03-04T06:31:36.940Z,34.33
2023-03-04T06:36:39.782Z,36.20
2023-03-04T06:41:42.705Z,35.28
2023-03-04T06:46:46.990Z,35.90
2023-03-04T06:51:49.832Z,36.08
2023-03-04T06:56:52.528Z,31.70
2023-03-04T07:01:56.965Z,31.55
2023-03-04T07:06:59.828Z,34.08
2023-03-04T07:12:02.610Z,27.98
2023-03-04T07:17:06.706Z,29.83
2023-03-04T07:22:09.504Z,32.33
2023-03-04T07:27:12.461Z,27.05
2023-03-04T07:32:19.162Z,25.38
2023-03-04T07:37:22.577Z,28.80
2023-03-04T07:42:25.348Z,27.33
2023-03-04T07:47:36.760Z,27.73
2023-03-04T07:52:40.053Z,27.42
2023-03-04T07:57:43.677Z,24.27
2023-03-04T08:02:47.999Z,24.63
2023-03-04T08:07:50.970Z,24.25
2023-03-04T08:12:53.828Z,19.55
2023-03-04T08:17:57.956Z,19.08
2023-03-04T08:23:01.036Z,19.25
2023-03-04T08:28:04.204Z,14.98
2023-03-04T08:33:09.313Z,15.40
2023-03-04T08:38:12.018Z,15.07
2023-03-04T08:43:14.713Z,14.60
2023-03-04T08:48:19.357Z,15.77
2023-03-04T08:53:23.094Z,15.68
2023-03-04T08:58:25.952Z,15.20
2023-03-04T09:03:30.251Z,13.25
2023-03-04T09:08:34.204Z,13.05
2023-03-04T09:13:37.790Z,14.48
2023-03-04T09:18:43.259Z,14.57
2023-03-04T09:23:46.119Z,15.90
2023-03-04T09:28:51.736Z,18.10
2023-03-04T09:33:58.866Z,16.33
2023-03-04T09:44:11.642Z,15.20
2023-03-04T09:49:18.078Z,14.48
2023-03-04T09:54:31.175Z,14.73
2023-03-04T09:59:43.038Z,13.70
2023-03-04T10:04:51.313Z,12.50
2023-03-04T10:09:59.888Z,11.90
2023-03-04T10:15:07.041Z,11.75
2023-03-04T10:25:22.191Z,13.77
2023-03-04T10:30:38.083Z,10.98
2023-03-04T10:35:46.360Z,10.93
2023-03-04T10:40:49.821Z,11.98
2023-03-04T10:45:56.405Z,20.23
2023-03-04T10:51:14.478Z,9.20
2023-03-04T10:56:39.116Z,15.38
2023-03-04T11:01:42.646Z,8.18
2023-03-04T11:06:46.949Z,10.10
2023-03-04T11:11:52.130Z,7.95
2023-03-04T11:16:57.196Z,7.72
2023-03-04T11:22:02.646Z,9.60
2023-03-04T11:27:09.387Z,6.10
2023-03-04T11:32:20.200Z,6.30
2023-03-04T11:37:31.424Z,7.95
2023-03-04T11:42:41.802Z,5.68
2023-03-04T11:47:58.422Z,6.20
2023-03-04T11:53:22.170Z,7.70
2023-03-04T11:58:45.565Z,6.47
2023-03-04T12:04:14.899Z,7.97
2023-03-04T12:09:37.204Z,9.48
2023-03-04T12:14:45.214Z,7.10
2023-03-04T12:20:04.518Z,6.95
2023-03-04T12:25:29.596Z,6.88
2023-03-04T12:30:41.385Z,7.63
2023-03-04T12:35:53.635Z,7.80
2023-03-04T12:41:04.285Z,8.20
2023-03-04T12:46:19.140Z,6.82
2023-03-04T12:51:31.888Z,6.53
2023-03-04T12:56:44.345Z,7.22
2023-03-04T13:01:55.026Z,6.45
2023-03-04T13:07:13.234Z,6.80
2023-03-04T13:12:22.074Z,7.72
2023-03-04T13:17:43.259Z,6.45
2023-03-04T13:22:51.963Z,6.50
2023-03-04T13:28:27.165Z,8.07
2023-03-04T13:33:51.881Z,9.68
2023-03-04T13:39:02.464Z,10.93
2023-03-04T13:44:22.953Z,10.82
2023-03-04T13:49:26.202Z,11.25
2023-03-04T13:54:32.252Z,11.25
2023-03-04T13:59:42.980Z,10.75
2023-03-04T14:04:48.770Z,11.77
2023-03-04T14:09:58.551Z,11.90
2023-03-04T14:15:07.364Z,11.35
2023-03-04T14:20:25.937Z,14.07
2023-03-04T14:25:30.770Z,13.75
2023-03-04T14:30:43.436Z,11.00
2023-03-04T14:35:49.113Z,11.57
2023-03-04T14:40:55.388Z,10.77
2023-03-04T14:46:03.558Z,9.80
2023-03-04T14:51:08.730Z,10.38
2023-03-04T14:56:12.096Z,10.50
2023-03-04T15:01:20.248Z,11.15
2023-03-04T15:06:28.309Z,11.50
2023-03-04T15:11:33.969Z,11.13
2023-03-04T15:16:56.992Z,10.25
2023-03-04T15:22:08.086Z,10.43
2023-03-04T15:27:13.400Z,10.75
2023-03-04T15:32:19.340Z,11.57
2023-03-04T15:37:24.353Z,11.55
2023-03-04T15:42:28.147Z,11.90
2023-03-04T15:47:32.434Z,10.38
2023-03-04T15:52:36.567Z,10.10
2023-03-04T15:57:39.415Z,8.90
2023-03-04T16:02:43.684Z,9.32
2023-03-04T16:07:49.343Z,9.40
2023-03-04T16:12:53.373Z,9.68
2023-03-04T16:17:59.631Z,9.85
2023-03-04T16:23:03.428Z,9.00
2023-03-04T16:28:07.503Z,11.13
2023-03-04T16:33:12.518Z,10.80
2023-03-04T16:38:25.695Z,11.48
2023-03-04T16:43:29.356Z,10.70
2023-03-04T16:48:34.509Z,10.43
2023-03-04T16:53:39.392Z,10.45
2023-03-04T16:58:42.361Z,11.60
2023-03-04T17:03:47.487Z,12.38
2023-03-04T17:08:50.919Z,12.25
2023-03-04T17:13:53.738Z,9.15
2023-03-04T17:18:58.284Z,9.43
2023-03-04T17:24:01.080Z,10.52
2023-03-04T17:29:03.917Z,11.07
2023-03-04T17:34:08.081Z,12.73
2023-03-04T17:39:11.993Z,11.23
2023-03-04T17:44:15.661Z,10.70
2023-03-04T17:49:19.820Z,11.35
2023-03-04T17:54:22.613Z,11.75
2023-03-04T17:59:25.590Z,12.70
2023-03-04T18:04:29.720Z,14.15
2023-03-04T18:09:32.589Z,15.00
2023-03-04T18:14:36.125Z,14.80
2023-03-04T18:19:40.964Z,14.50
2023-03-04T18:24:43.952Z,18.38
2023-03-04T18:29:46.674Z,15.25
2023-03-04T18:34:50.983Z,17.05
2023-03-04T18:39:54.154Z,15.27
2023-03-04T18:44:56.920Z,15.68
2023-03-04T18:50:01.092Z,15.85
2023-03-04T18:55:04.052Z,27.42
2023-03-04T19:00:11.504Z,16.20
2023-03-04T19:05:21.108Z,14.77
2023-03-04T19:10:25.512Z,14.25
2023-03-04T19:15:28.788Z,15.90
2023-03-04T19:20:33.058Z,21.17
2023-03-04T19:25:38.615Z,24.15
2023-03-04T19:30:42.673Z,12.27
2023-03-04T19:35:47.524Z,13.88
2023-03-04T19:40:51.111Z,14.23
2023-03-04T19:45:55.260Z,13.57
2023-03-04T19:50:59.821Z,14.02
2023-03-04T19:56:02.760Z,12.02
2023-03-04T20:01:05.982Z,13.63
2023-03-04T20:06:10.758Z,15.43
2023-03-04T20:11:14.169Z,14.82
2023-03-04T20:16:17.394Z,16.15
2023-03-04T20:21:21.666Z,16.98
2023-03-04T20:26:24.781Z,17.83
2023-03-04T20:31:31.402Z,17.55
2023-03-04T20:36:35.911Z,17.07
2023-03-04T20:41:39.624Z,16.10
2023-03-04T20:46:45.632Z,16.33
2023-03-04T20:51:50.503Z,15.68
2023-03-04T20:56:53.323Z,15.05
2023-03-04T21:01:56.586Z,15.82
2023-03-04T21:07:01.005Z,14.52
2023-03-04T21:12:03.721Z,15.85
2023-03-04T21:17:07.282Z,17.27
2023-03-04T21:22:15.703Z,15.98
2023-03-04T21:27:19.282Z,16.15
2023-03-04T21:32:25.840Z,14.35
2023-03-04T21:37:30.129Z,14.15
2023-03-04T21:42:33.258Z,16.05
2023-03-04T21:47:36.195Z,17.00
2023-03-04T21:52:40.532Z,15.98
2023-03-04T21:57:44.861Z,16.95
2023-03-04T22:02:47.585Z,18.23
2023-03-04T22:07:52.676Z,17.02
2023-03-04T22:12:55.521Z,19.42
2023-03-04T22:17:58.671Z,17.50
2023-03-04T22:23:02.971Z,19.38
2023-03-04T22:28:06.969Z,20.98
2023-03-04T22:33:10.389Z,16.02
2023-03-04T22:38:14.576Z,16.35
2023-03-04T22:43:17.436Z,16.40
2023-03-04T22:48:20.335Z,17.80
2023-03-04T22:53:26.174Z,18.42
2023-03-04T22:58:28.987Z,19.60
2023-03-04T23:03:31.910Z,16.85
2023-03-04T23:08:37.089Z,18.10
2023-03-04T23:13:41.701Z,17.45
2023-03-04T23:18:46.550Z,17.50
2023-03-04T23:23:51.264Z,21.38
2023-03-04T23:28:55.755Z,17.98
2023-03-04T23:34:00.909Z,14.40
2023-03-04T23:39:06.100Z,15.60
2023-03-04T23:44:09.414Z,15.15
2023-03-04T23:49:14.765Z,13.48
2023-03-04T23:54:19.160Z,11.82
2023-03-04T23:59:21.968Z,13.35
